createdAt,value
2022-08-27T00:01:16.366Z,26.90
2022-08-27T00:03:44.469Z,26.90
2022-08-27T00:06:15.291Z,26.90
2022-08-27T00:08:44.306Z,26.80
2022-08-27T00:11:30.437Z,26.80
2022-08-27T00:13:57.206Z,26.90
2022-08-27T00:16:24.436Z,26.80
2022-08-27T00:18:51.215Z,26.80
2022-08-27T00:21:17.986Z,26.90
2022-08-27T00:23:44.823Z,26.90
2022-08-27T00:26:12.491Z,26.80
2022-08-27T00:28:57.887Z,26.80
2022-08-27T00:31:27.549Z,26.80
2022-08-27T00:33:54.868Z,26.80
2022-08-27T00:36:21.551Z,26.80
2022-08-27T00:44:36.426Z,26.80
2022-08-27T00:47:05.495Z,26.80
2022-08-27T00:49:36.819Z,26.80
2022-08-27T00:52:08.903Z,26.80
2022-08-27T00:54:35.598Z,26.80
2022-08-27T00:57:03.443Z,26.80
2022-08-27T00:59:48.591Z,26.80
2022-08-27T01:05:20.600Z,26.80
2022-08-27T01:07:49.953Z,26.90
2022-08-27T01:10:18.431Z,26.80
2022-08-27T01:13:03.561Z,26.90
2022-08-27T01:15:30.608Z,26.80
2022-08-27T01:17:58.086Z,26.80
2022-08-27T01:20:27.621Z,26.80
2022-08-27T01:23:10.000Z,26.90
2022-08-27T01:25:37.720Z,26.90
2022-08-27T01:28:04.957Z,26.90
2022-08-27T01:30:31.700Z,26.90
2022-08-27T01:32:59.135Z,26.90
2022-08-27T01:35:26.236Z,26.90
2022-08-27T01:37:54.259Z,26.90
2022-08-27T01:40:25.451Z,26.90
2022-08-27T01:42:53.302Z,26.90
2022-08-27T01:45:20.014Z,27.00
2022-08-27T01:48:08.443Z,27.00
2022-08-27T01:50:37.354Z,27.00
2022-08-27T01:56:32.716Z,27.00
2022-08-27T01:58:59.393Z,27.00
2022-08-27T02:01:26.117Z,26.90
2022-08-27T02:03:52.893Z,26.90
2022-08-27T02:06:19.808Z,27.00
2022-08-27T02:08:46.531Z,27.00
2022-08-27T02:11:14.776Z,27.00
2022-08-27T02:13:41.505Z,27.00
2022-08-27T02:16:09.029Z,27.00
2022-08-27T02:18:38.388Z,26.90
2022-08-27T02:21:08.763Z,26.90
2022-08-27T02:23:35.489Z,26.90
2022-08-27T02:26:02.188Z,27.00
2022-08-27T02:28:28.896Z,26.90
2022-08-27T02:30:55.627Z,26.90
2022-08-27T02:33:22.379Z,26.80
2022-08-27T02:35:49.958Z,26.90
2022-08-27T02:38:16.992Z,26.90
2022-08-27T02:40:44.530Z,26.90
2022-08-27T02:43:14.167Z,26.90
2022-08-27T02:45:42.776Z,26.90
2022-08-27T02:48:09.928Z,26.90
2022-08-27T02:50:36.818Z,26.90
2022-08-27T02:53:04.866Z,26.90
2022-08-27T02:55:32.283Z,26.90
2022-08-27T02:57:59.008Z,26.90
2022-08-27T03:00:26.016Z,26.90
2022-08-27T03:02:53.611Z,26.90
2022-08-27T03:05:20.546Z,26.90
2022-08-27T03:07:47.489Z,26.90
2022-08-27T03:10:27.506Z,26.90
2022-08-27T03:12:54.164Z,27.00
2022-08-27T03:15:21.013Z,27.10
2022-08-27T03:18:07.157Z,27.00
2022-08-27T03:20:35.564Z,27.10
2022-08-27T03:23:02.241Z,27.00
2022-08-27T03:25:30.324Z,27.00
2022-08-27T03:27:59.925Z,26.90
2022-08-27T03:30:26.719Z,26.80
2022-08-27T03:32:53.532Z,26.80
2022-08-27T03:35:21.882Z,26.80
2022-08-27T03:41:11.945Z,26.80
2022-08-27T03:43:38.629Z,26.80
2022-08-27T03:46:06.774Z,26.80
2022-08-27T03:48:34.965Z,26.80
2022-08-27T03:51:06.611Z,26.80
2022-08-27T03:53:33.823Z,26.80
2022-08-27T03:56:01.288Z,26.70
2022-08-27T03:58:28.027Z,26.70
2022-08-27T04:00:54.726Z,26.70
2022-08-27T04:03:25.253Z,26.70
2022-08-27T04:05:53.213Z,26.80
2022-08-27T04:08:19.953Z,26.70
2022-08-27T04:10:49.024Z,26.70
2022-08-27T04:19:55.102Z,26.70
2022-08-27T04:22:21.826Z,26.80
2022-08-27T04:24:48.516Z,26.80
2022-08-27T04:27:16.270Z,26.80
2022-08-27T04:29:42.981Z,26.80
2022-08-27T04:32:10.231Z,26.70
2022-08-27T04:34:37.088Z,26.80
2022-08-27T04:37:03.916Z,26.70
2022-08-27T04:39:30.926Z,26.70
2022-08-27T04:42:00.083Z,26.80
2022-08-27T04:44:28.744Z,26.80
2022-08-27T04:46:59.739Z,26.70
2022-08-27T04:49:27.352Z,26.70
2022-08-27T04:51:54.526Z,26.80
2022-08-27T04:54:26.006Z,26.80
2022-08-27T04:57:00.966Z,26.80
2022-08-27T04:59:27.645Z,26.80
2022-08-27T05:01:54.493Z,26.80
2022-08-27T05:04:21.361Z,26.80
2022-08-27T05:06:49.302Z,26.80
2022-08-27T05:09:16.741Z,26.80
2022-08-27T05:11:45.393Z,26.80
2022-08-27T05:14:15.128Z,26.70
2022-08-27T05:16:42.661Z,26.80
2022-08-27T05:19:11.683Z,26.80
2022-08-27T05:21:39.538Z,26.70
2022-08-27T05:24:07.291Z,26.70
2022-08-27T05:26:34.891Z,26.70
2022-08-27T05:29:01.921Z,26.70
2022-08-27T05:31:29.329Z,26.80
2022-08-27T05:33:57.988Z,26.80
2022-08-27T05:36:26.916Z,26.80
2022-08-27T05:38:55.156Z,26.80
2022-08-27T05:41:30.246Z,26.80
2022-08-27T05:44:37.200Z,26.80
2022-08-27T05:46:56.953Z,26.80
2022-08-27T05:49:23.635Z,26.80
2022-08-27T05:51:50.481Z,26.80
2022-08-27T05:54:20.305Z,26.80
2022-08-27T05:56:47.961Z,26.80
2022-08-27T05:59:34.581Z,26.80
2022-08-27T06:02:02.119Z,26.80
2022-08-27T06:04:28.800Z,26.80
2022-08-27T06:06:56.337Z,26.70
2022-08-27T06:09:25.013Z,26.70
2022-08-27T06:11:54.148Z,26.80
2022-08-27T06:14:21.242Z,26.70
2022-08-27T06:16:48.606Z,26.70
2022-08-27T06:19:15.686Z,26.70
2022-08-27T06:21:43.208Z,26.70
2022-08-27T06:24:12.147Z,26.70
2022-08-27T06:26:39.164Z,26.70
2022-08-27T06:29:07.164Z,26.70
2022-08-27T06:31:35.658Z,26.70
2022-08-27T06:34:07.497Z,26.70
2022-08-27T06:36:40.451Z,26.70
2022-08-27T06:39:08.048Z,26.70
2022-08-27T06:41:35.071Z,26.70
2022-08-27T06:44:02.639Z,26.70
2022-08-27T06:46:29.664Z,26.70
2022-08-27T06:48:57.916Z,26.70
2022-08-27T06:51:26.423Z,26.70
2022-08-27T06:53:57.540Z,26.70
2022-08-27T06:56:24.452Z,26.70
2022-08-27T06:58:59.189Z,26.70
2022-08-27T07:01:30.509Z,26.80
2022-08-27T07:03:58.546Z,26.80
2022-08-27T07:06:25.957Z,26.80
2022-08-27T07:08:53.513Z,26.80
2022-08-27T07:11:21.113Z,26.80
2022-08-27T07:13:48.220Z,26.80
2022-08-27T07:16:17.416Z,26.80
2022-08-27T07:18:44.805Z,26.80
2022-08-27T07:21:12.458Z,26.90
2022-08-27T07:23:39.843Z,26.90
2022-08-27T07:26:10.393Z,27.00
2022-08-27T07:28:38.122Z,27.00
2022-08-27T07:31:05.661Z,27.00
2022-08-27T07:33:32.508Z,27.00
2022-08-27T07:35:59.231Z,27.10
2022-08-27T07:38:25.940Z,27.10
2022-08-27T07:40:53.563Z,27.10
2022-08-27T07:43:38.752Z,27.10
2022-08-27T07:46:05.667Z,27.10
2022-08-27T07:48:36.484Z,27.20
2022-08-27T07:51:05.394Z,27.10
2022-08-27T07:53:33.131Z,27.10
2022-08-27T07:56:06.796Z,27.10
2022-08-27T07:58:33.722Z,27.20
2022-08-27T08:01:00.462Z,27.10
2022-08-27T08:03:28.044Z,27.00
2022-08-27T08:05:56.601Z,26.90
2022-08-27T08:08:23.814Z,26.80
2022-08-27T08:10:50.559Z,26.80
2022-08-27T08:13:18.629Z,26.80
2022-08-27T08:15:46.362Z,26.80
2022-08-27T08:18:13.375Z,26.70
2022-08-27T08:20:57.649Z,26.60
2022-08-27T08:23:25.535Z,26.60
2022-08-27T08:25:55.276Z,26.50
2022-08-27T08:28:21.959Z,26.50
2022-08-27T08:30:49.975Z,26.60
2022-08-27T08:33:17.231Z,26.50
2022-08-27T08:35:44.051Z,26.50
2022-08-27T08:38:10.957Z,26.50
2022-08-27T08:40:43.336Z,26.60
2022-08-27T08:43:28.505Z,26.60
2022-08-27T08:45:56.816Z,26.70
2022-08-27T08:48:25.306Z,26.70
2022-08-27T08:51:18.732Z,26.60
2022-08-27T08:53:52.853Z,26.70
2022-08-27T08:56:31.813Z,26.80
2022-08-27T08:59:04.709Z,26.70
2022-08-27T09:01:33.044Z,26.90
2022-08-27T09:04:01.022Z,26.90
2022-08-27T09:06:33.673Z,26.80
2022-08-27T09:09:04.626Z,26.80
2022-08-27T09:11:44.034Z,26.90
2022-08-27T09:14:16.786Z,26.80
2022-08-27T09:16:43.503Z,26.80
2022-08-27T09:19:13.018Z,26.80
2022-08-27T09:21:49.455Z,26.50
2022-08-27T09:24:16.206Z,26.40
2022-08-27T09:26:43.950Z,26.30
2022-08-27T09:29:21.308Z,26.30
2022-08-27T09:31:56.737Z,26.30
2022-08-27T09:34:25.387Z,26.30
2022-08-27T09:36:54.266Z,26.20
2022-08-27T09:39:26.976Z,26.30
2022-08-27T09:41:53.704Z,26.40
2022-08-27T09:44:20.763Z,26.50
2022-08-27T09:46:53.625Z,26.40
2022-08-27T09:49:20.338Z,26.30
2022-08-27T09:51:47.719Z,26.20
2022-08-27T09:54:26.638Z,26.20
2022-08-27T09:56:53.468Z,26.40
2022-08-27T09:59:22.256Z,26.40
2022-08-27T10:01:53.006Z,26.40
2022-08-27T10:04:28.447Z,26.60
2022-08-27T10:06:55.906Z,26.60
2022-08-27T10:09:28.751Z,26.50
2022-08-27T10:11:55.438Z,26.50
2022-08-27T10:14:32.608Z,26.50
2022-08-27T10:17:22.443Z,26.50
2022-08-27T10:20:02.755Z,26.40
2022-08-27T10:22:41.330Z,26.40
2022-08-27T10:25:09.003Z,26.50
2022-08-27T10:27:55.911Z,26.50
2022-08-27T10:30:34.438Z,26.30
2022-08-27T10:33:07.793Z,26.30
2022-08-27T10:36:00.374Z,26.20
2022-08-27T10:38:44.679Z,26.30
2022-08-27T10:41:37.911Z,26.30
2022-08-27T10:44:10.401Z,26.20
2022-08-27T10:46:50.094Z,26.30
2022-08-27T10:49:21.385Z,26.30
2022-08-27T10:52:01.242Z,26.30
2022-08-27T10:54:32.436Z,26.20
2022-08-27T10:57:28.642Z,26.30
2022-08-27T10:59:57.309Z,26.40
2022-08-27T11:02:36.186Z,26.40
2022-08-27T11:05:15.069Z,26.40
2022-08-27T11:07:47.781Z,26.50
2022-08-27T11:10:14.485Z,26.60
2022-08-27T11:12:43.119Z,26.40
2022-08-27T11:15:17.730Z,26.40
2022-08-27T11:17:51.502Z,26.40
2022-08-27T11:20:24.960Z,26.50
2022-08-27T11:22:54.913Z,26.70
2022-08-27T11:25:21.846Z,26.70
2022-08-27T11:27:54.656Z,26.80
2022-08-27T11:30:41.300Z,26.80
2022-08-27T11:33:14.444Z,26.90
2022-08-27T11:35:41.421Z,26.80
2022-08-27T11:38:17.468Z,26.80
2022-08-27T11:41:07.363Z,26.70
2022-08-27T11:43:35.930Z,26.70
2022-08-27T11:46:04.669Z,26.70
2022-08-27T11:48:31.505Z,26.80
2022-08-27T11:51:01.610Z,26.90
2022-08-27T11:53:30.323Z,26.80
2022-08-27T11:55:57.723Z,26.90
2022-08-27T11:58:28.158Z,26.90
2022-08-27T12:00:54.990Z,26.80
2022-08-27T12:03:21.722Z,26.80
2022-08-27T12:05:48.509Z,26.70
2022-08-27T12:08:20.315Z,26.80
2022-08-27T12:11:00.250Z,26.80
2022-08-27T12:13:41.434Z,26.80
2022-08-27T12:16:35.381Z,26.70
2022-08-27T12:19:21.040Z,26.70
2022-08-27T12:21:48.345Z,26.70
2022-08-27T12:24:15.241Z,26.80
2022-08-27T12:26:43.352Z,26.70
2022-08-27T12:29:27.908Z,26.70
2022-08-27T12:32:07.119Z,26.70
2022-08-27T12:34:43.015Z,26.60
2022-08-27T12:37:10.696Z,26.80
2022-08-27T12:39:39.437Z,26.70
2022-08-27T12:42:13.074Z,26.60
2022-08-27T12:44:40.236Z,26.70
2022-08-27T12:47:08.785Z,26.70
2022-08-27T12:49:46.300Z,26.70
2022-08-27T12:52:26.410Z,26.70
2022-08-27T12:55:05.502Z,26.80
2022-08-27T12:57:41.483Z,26.80
2022-08-27T13:00:15.633Z,26.80
2022-08-27T13:02:51.949Z,26.80
2022-08-27T13:05:21.173Z,26.80
2022-08-27T13:07:48.650Z,26.80
2022-08-27T13:10:19.898Z,26.80
2022-08-27T13:12:48.383Z,26.90
2022-08-27T13:15:16.427Z,26.90
2022-08-27T13:17:44.442Z,26.80
2022-08-27T13:20:22.536Z,26.80
2022-08-27T13:22:50.018Z,26.80
2022-08-27T13:25:20.985Z,26.90
2022-08-27T13:28:00.839Z,26.80
2022-08-27T13:30:35.857Z,26.90
2022-08-27T13:33:04.193Z,26.90
2022-08-27T13:35:34.058Z,26.90
2022-08-27T13:38:02.163Z,26.90
2022-08-27T13:40:31.519Z,27.00
2022-08-27T13:43:03.394Z,27.00
2022-08-27T13:45:30.791Z,27.00
2022-08-27T13:48:01.334Z,27.00
2022-08-27T13:50:29.709Z,26.90
2022-08-27T13:53:42.889Z,26.90
2022-08-27T13:56:30.166Z,26.90
2022-08-27T13:59:07.069Z,26.90
2022-08-27T14:01:37.724Z,26.90
2022-08-27T14:04:09.859Z,27.00
2022-08-27T14:06:42.041Z,27.00
2022-08-27T14:09:20.689Z,26.90
2022-08-27T14:11:48.174Z,27.00
2022-08-27T14:14:16.789Z,27.00
2022-08-27T14:16:44.854Z,27.00
2022-08-27T14:19:14.526Z,27.10
2022-08-27T14:21:42.321Z,27.00
2022-08-27T14:24:10.694Z,26.90
2022-08-27T14:26:37.524Z,27.00
2022-08-27T14:29:04.393Z,27.00
2022-08-27T14:31:39.211Z,27.00
2022-08-27T14:34:08.415Z,27.10
2022-08-27T14:36:37.246Z,27.10
2022-08-27T14:39:04.203Z,27.10
2022-08-27T14:41:31.559Z,27.00
2022-08-27T14:44:00.830Z,27.10
2022-08-27T14:46:29.204Z,27.10
2022-08-27T14:48:57.080Z,27.10
2022-08-27T14:51:26.164Z,27.10
2022-08-27T14:53:53.459Z,27.10
2022-08-27T14:56:21.756Z,27.10
2022-08-27T14:58:48.644Z,27.10
2022-08-27T15:01:17.569Z,27.10
2022-08-27T15:03:47.518Z,27.10
2022-08-27T15:06:15.223Z,27.00
2022-08-27T15:08:44.682Z,27.10
2022-08-27T15:11:14.474Z,27.10
2022-08-27T15:13:41.391Z,27.20
2022-08-27T15:16:20.717Z,27.10
2022-08-27T15:18:56.867Z,27.20
2022-08-27T15:21:29.663Z,27.10
2022-08-27T15:24:01.641Z,27.10
2022-08-27T15:26:28.534Z,27.10
2022-08-27T15:28:55.919Z,27.00
2022-08-27T15:31:23.021Z,27.10
2022-08-27T15:33:49.890Z,27.10
2022-08-27T15:36:16.696Z,27.10
2022-08-27T15:38:43.491Z,27.10
2022-08-27T15:41:10.479Z,27.10
2022-08-27T15:43:38.551Z,27.10
2022-08-27T15:46:05.703Z,27.10
2022-08-27T15:48:33.056Z,27.10
2022-08-27T15:51:06.742Z,27.20
2022-08-27T15:53:34.595Z,27.20
2022-08-27T15:56:03.982Z,27.10
2022-08-27T15:58:31.789Z,27.20
2022-08-27T16:01:25.070Z,27.10
2022-08-27T16:03:52.629Z,27.10
2022-08-27T16:06:19.707Z,27.20
2022-08-27T16:08:47.050Z,27.20
2022-08-27T16:11:13.889Z,27.10
2022-08-27T16:13:41.079Z,27.10
2022-08-27T16:16:08.663Z,27.10
2022-08-27T16:18:37.372Z,27.10
2022-08-27T16:21:04.469Z,27.10
2022-08-27T16:23:31.753Z,27.10
2022-08-27T16:25:58.576Z,27.10
2022-08-27T16:28:25.311Z,27.10
2022-08-27T16:30:53.520Z,27.10
2022-08-27T16:33:22.681Z,27.10
2022-08-27T16:35:50.262Z,27.10
2022-08-27T16:38:17.219Z,27.10
2022-08-27T16:40:48.071Z,27.10
2022-08-27T16:43:18.254Z,27.10
2022-08-27T16:45:45.158Z,27.00
2022-08-27T16:48:30.877Z,27.10
2022-08-27T16:50:59.301Z,27.00
2022-08-27T16:53:26.606Z,27.00
2022-08-27T16:55:53.889Z,27.10
2022-08-27T16:58:22.374Z,27.00
2022-08-27T17:00:50.662Z,27.00
2022-08-27T17:03:19.295Z,27.00
2022-08-27T17:05:46.341Z,27.00
2022-08-27T17:08:21.986Z,27.00
2022-08-27T17:10:54.996Z,27.00
2022-08-27T17:13:28.229Z,27.00
2022-08-27T17:15:56.394Z,26.90
2022-08-27T17:18:25.475Z,26.90
2022-08-27T17:20:52.819Z,26.90
2022-08-27T17:23:28.566Z,26.80
2022-08-27T17:25:55.782Z,26.80
2022-08-27T17:28:22.880Z,26.80
2022-08-27T17:30:52.583Z,26.80
2022-08-27T17:33:23.192Z,26.80
2022-08-27T17:35:50.329Z,26.80
2022-08-27T17:38:17.575Z,26.80
2022-08-27T17:40:44.607Z,26.80
2022-08-27T17:43:11.677Z,26.80
2022-08-27T17:45:40.429Z,26.70
2022-08-27T17:48:14.056Z,26.80
2022-08-27T17:50:45.060Z,26.80
2022-08-27T17:53:11.872Z,26.70
2022-08-27T17:55:39.131Z,26.70
2022-08-27T17:58:06.973Z,26.70
2022-08-27T18:00:33.832Z,26.70
2022-08-27T18:03:01.129Z,26.70
2022-08-27T18:05:28.286Z,26.60
2022-08-27T18:07:57.216Z,26.70
2022-08-27T18:10:25.194Z,26.60
2022-08-27T18:12:53.239Z,26.60
2022-08-27T18:15:22.041Z,26.60
2022-08-27T18:17:49.101Z,26.50
2022-08-27T18:20:21.722Z,26.60
2022-08-27T18:22:49.219Z,26.60
2022-08-27T18:25:17.999Z,26.60
2022-08-27T18:27:45.984Z,26.60
2022-08-27T18:30:13.009Z,26.60
2022-08-27T18:32:40.433Z,26.70
2022-08-27T18:35:14.196Z,26.60
2022-08-27T18:37:41.738Z,26.50
2022-08-27T18:40:09.397Z,26.60
2022-08-27T18:42:38.217Z,26.60
2022-08-27T18:45:07.686Z,26.60
2022-08-27T18:47:34.386Z,26.60
2022-08-27T18:50:01.184Z,26.60
2022-08-27T18:52:28.029Z,26.60
2022-08-27T18:54:54.883Z,26.70
2022-08-27T19:00:26.688Z,26.50
2022-08-27T19:02:55.406Z,26.50
2022-08-27T19:05:25.111Z,26.50
2022-08-27T19:07:52.116Z,26.50
2022-08-27T19:10:20.278Z,26.60
2022-08-27T19:12:47.926Z,26.60
2022-08-27T19:15:14.756Z,26.60
2022-08-27T19:17:43.107Z,26.60
2022-08-27T19:20:11.788Z,26.60
2022-08-27T19:22:38.521Z,26.50
2022-08-27T19:25:08.113Z,26.60
2022-08-27T19:27:35.918Z,26.50
2022-08-27T19:30:03.514Z,26.50
2022-08-27T19:32:31.119Z,26.50
2022-08-27T19:34:57.905Z,26.50
2022-08-27T19:37:26.488Z,26.50
2022-08-27T19:39:54.240Z,26.60
2022-08-27T19:42:21.503Z,26.40
2022-08-27T19:44:51.607Z,26.40
2022-08-27T19:47:30.358Z,26.40
2022-08-27T19:49:58.131Z,26.40
2022-08-27T19:52:25.120Z,26.30
2022-08-27T19:55:12.466Z,26.30
2022-08-27T19:57:42.779Z,26.20
2022-08-27T20:00:13.214Z,26.30
2022-08-27T20:02:40.661Z,26.30
2022-08-27T20:05:17.783Z,26.40
2022-08-27T20:07:47.802Z,26.30
2022-08-27T20:10:42.556Z,26.40
2022-08-27T20:13:21.558Z,26.40
2022-08-27T20:18:46.545Z,26.30
2022-08-27T20:21:35.943Z,26.40
2022-08-27T20:24:10.944Z,26.40
2022-08-27T20:26:44.263Z,26.40
2022-08-27T20:29:15.039Z,26.40
2022-08-27T20:31:56.761Z,26.30
2022-08-27T20:34:26.612Z,26.30
2022-08-27T20:36:56.378Z,26.30
2022-08-27T20:39:23.268Z,26.20
2022-08-27T20:41:52.154Z,26.20
2022-08-27T20:44:19.276Z,26.20
2022-08-27T20:46:48.865Z,26.20
2022-08-27T20:49:19.518Z,26.20
2022-08-27T20:51:51.160Z,26.20
2022-08-27T20:54:31.775Z,26.20
2022-08-27T20:56:58.861Z,26.20
2022-08-27T20:59:44.680Z,26.10
2022-08-27T21:02:12.733Z,26.00
2022-08-27T21:04:41.267Z,25.90
2022-08-27T21:07:08.096Z,25.90
2022-08-27T21:09:35.017Z,26.00
2022-08-27T21:12:01.833Z,25.80
2022-08-27T21:14:29.393Z,25.80
2022-08-27T21:16:56.786Z,25.90
2022-08-27T21:19:23.878Z,25.90
2022-08-27T21:21:51.550Z,26.00
2022-08-27T21:24:18.583Z,25.90
2022-08-27T21:26:45.686Z,26.00
2022-08-27T21:29:13.000Z,26.00
2022-08-27T21:31:39.752Z,25.90
2022-08-27T21:34:06.623Z,25.90
2022-08-27T21:36:37.323Z,25.90
2022-08-27T21:39:04.053Z,25.90
2022-08-27T21:41:34.291Z,26.00
2022-08-27T21:44:05.538Z,25.80
2022-08-27T21:46:33.354Z,25.80
2022-08-27T21:49:00.239Z,25.80
2022-08-27T21:51:28.813Z,25.70
2022-08-27T21:53:55.647Z,25.90
2022-08-27T21:56:22.853Z,25.80
2022-08-27T21:58:49.698Z,25.70
2022-08-27T22:01:16.604Z,25.70
2022-08-27T22:03:47.049Z,25.70
2022-08-27T22:06:15.660Z,25.80
2022-08-27T22:08:43.636Z,25.80
2022-08-27T22:11:10.805Z,25.70
2022-08-27T22:13:38.220Z,25.80
2022-08-27T22:16:05.308Z,25.70
2022-08-27T22:18:32.168Z,25.70
2022-08-27T22:20:59.537Z,25.60
2022-08-27T22:23:26.863Z,25.60
2022-08-27T22:25:53.728Z,25.50
2022-08-27T22:28:21.313Z,25.50
2022-08-27T22:30:48.023Z,25.50
2022-08-27T22:33:15.411Z,25.50
2022-08-27T22:35:43.673Z,25.60
2022-08-27T22:38:11.070Z,25.50
2022-08-27T22:40:38.433Z,25.40
2022-08-27T22:43:05.520Z,25.60
2022-08-27T22:45:32.324Z,25.50
2022-08-27T22:47:59.258Z,25.50
2022-08-27T22:50:26.163Z,25.50
2022-08-27T22:52:53.073Z,25.60
2022-08-27T22:55:20.758Z,25.50
2022-08-27T22:57:48.304Z,25.50
2022-08-27T23:00:17.571Z,25.70
2022-08-27T23:02:44.488Z,25.90
2022-08-27T23:05:11.474Z,26.00
2022-08-27T23:07:38.570Z,26.00
2022-08-27T23:10:06.880Z,26.00
2022-08-27T23:12:38.909Z,26.10
2022-08-27T23:15:07.440Z,26.10
2022-08-27T23:17:34.317Z,26.10
2022-08-27T23:20:01.821Z,26.20
2022-08-27T23:22:28.827Z,26.10
2022-08-27T23:25:14.870Z,26.10
2022-08-27T23:27:41.760Z,25.80
2022-08-27T23:30:09.118Z,25.70
2022-08-27T23:32:37.855Z,25.70
2022-08-27T23:35:05.636Z,25.70
2022-08-27T23:37:32.407Z,25.60
2022-08-27T23:40:00.275Z,25.60
2022-08-27T23:42:27.974Z,25.50
2022-08-27T23:44:55.231Z,25.40
2022-08-27T23:47:22.009Z,25.40
2022-08-27T23:49:48.678Z,25.50
2022-08-27T23:52:15.385Z,25.50
2022-08-27T23:54:42.843Z,25.50
2022-08-27T23:57:09.635Z,25.70
2022-08-27T23:59:36.323Z,25.70
